ADDS METAR Data INFO
IDs: Format: Raw Decoded Include TAF

Data at: 0313 UTC 20 Jul 2018

KDVN 200252Z AUTO 21005KT 10SM FEW055 23/21 A2974 RMK AO2 SLP062 T02330211 55000
KDVN 200152Z AUTO 18008KT 10SM SCT060 24/21 A2973 RMK AO2 LTG DSNT N SLP059 T02390206
KDVN 200052Z AUTO 16014G22KT 10SM FEW033 24/21 A2973 RMK AO2 LTG DSNT N AND NE SLP059 T02440206
KDVN 192352Z AUTO 17012G19KT 10SM FEW037 24/21 A2974 RMK AO2 LTG DSNT N AND NE SLP064 60003 T02440206 10244 20172 58023
KDVN 192252Z AUTO 16012G26KT 10SM FEW022 24/20 A2978 RMK AO2 PK WND 14026/2246 LTG DSNT N SLP076 T02390200
KDVN 192249Z AUTO 16014G26KT 10SM SCT022 24/20 A2978 RMK AO2 PK WND 14026/2246 LTG DSNT N
KDVN 192152Z AUTO 17014G21KT 10SM BKN022 OVC028 24/19 A2981 RMK AO2 LTG DSNT NW SLP087 T02390194
KDVN 192052Z AUTO 17011G21KT 10SM OVC019 23/19 A2983 RMK AO2 SLP095 60003 T02330194 56023
KDVN 192028Z AUTO 16013G23KT 10SM BKN016 BKN022 23/19 A2984 RMK AO2 T02330194
KDVN 191952Z AUTO 14014KT 10SM FEW023 FEW030 SCT055 23/19 A2985 RMK AO2 RAE1853 SLP101 P0000 T02280189
KDVN 191949Z AUTO 14013G23KT 10SM FEW023 SCT030 SCT055 22/19 A2986 RMK AO2 RAE1853 P0000
KDVN 191908Z AUTO 13014KT 10SM BKN029 BKN034 OVC060 19/18 A2989 RMK AO2 LTG DSNT E RAE1853 P0000 T01940178
KDVN 191852Z AUTO 14009KT 10SM -RA SCT034 BKN060 BKN070 19/18 A2990 RMK AO2 LTG DSNT E SLP120 P0003 T01940178
KDVN 191813Z AUTO 09010KT 10SM -RA SCT035 BKN070 OVC110 18/17 A2991 RMK AO2 LTG DSNT E-S P0003 T01780167
KDVN 191752Z AUTO 09010KT 4SM VCTS RA BR SCT039 BKN050 OVC110 17/16 A2993 RMK AO2 LTG DSNT ALQDS TSE1658B03E50 PRESFR SLP130 P0057 60067 T01720161 10217 20167 58009
KDVN 191750Z AUTO 09010KT 4SM RA BR SCT039 BKN050 OVC110 17/16 A2993 RMK AO2 LTG DSNT ALQDS TSE1658B03E50 PRESFR P0057
KDVN 191741Z AUTO 07006KT 2SM +TSRA BR FEW033 BKN040 OVC050 17/16 A2996 RMK AO2 LTG DSNT ALQDS TSE1658B03 PRESFR P0055 T01670161
KDVN 191731Z AUTO 35003KT 3/4SM +TSRA BR BKN032 OVC043 17/16 A2997 RMK AO2 LTG DSNT ALQDS TSE1658B03 P0051 T01670161
KDVN 191724Z AUTO 30005KT 1 1/4SM +TSRA BR BKN029 BKN035 OVC047 17/16 A2999 RMK AO2 LTG DSNT SE-W TSE1658B03 P0041 T01720161
KDVN 191718Z AUTO 32007KT 3/4SM +TSRA BR BKN031 BKN047 OVC060 17/17 A2997 RMK AO2 LTG DSNT S-NW TSE1658B03 P0037 T01720167
KDVN 191707Z AUTO 00000KT 1SM +TSRA BR BKN035 BKN055 OVC070 18/17 A2998 RMK AO2 LTG DSNT SW-NW TSE1658B03 P0021 T01780167
KDVN 191702Z AUTO 30010KT 3/4SM VCTS +RA BR SCT033 BKN041 OVC070 18/17 A2998 RMK AO2 LTG DSNT ALQDS TSE1658 P0015 T01780167
KDVN 191656Z AUTO 31005KT 1 3/4SM TSRA BR SCT038 BKN060 OVC075 18/17 A2996 RMK AO2 LTG DSNT SE-W P0006 T01830167
KDVN 191652Z AUTO 03004KT 4SM TSRA BR FEW041 BKN060 OVC075 18/17 A2995 RMK AO2 LTG DSNT ALQDS TSB41 SLP135 P0009 T01830167
KDVN 191641Z AUTO 33007KT 7SM -TSRA FEW043 BKN060 OVC095 19/17 A2995 RMK AO2 LTG DSNT SW-NW TSB41 P0007 T01890172
KDVN 191552Z AUTO 00000KT 10SM -RA BKN040 BKN055 OVC085 20/16 A2994 RMK AO2 LTG DSNT SW AND W RAB35 SLP134 P0001 T02000161
KDVN 191452Z AUTO 14007KT 10SM FEW044 OVC070 21/12 A2996 RMK AO2 RAB25E33 SLP137 P0000 60000 T02110122 58011
KDVN 191352Z AUTO VRB04KT 10SM SCT060 BKN095 21/13 A2998 RMK AO2 SLP145 T02060133
KDVN 191252Z AUTO 13006KT 10SM BKN070 BKN090 19/13 A2999 RMK AO2 SLP149 T01940133
KDVN 191152Z AUTO 14003KT 10SM BKN080 OVC090 18/13 A2999 RMK AO2 SLP148 T01830128 10194 20161 58007
KDVN 191052Z AUTO 13005KT 10SM CLR 17/13 A3000 RMK AO2 SLP153 T01670128
KDVN 190952Z AUTO 14005KT 10SM CLR 17/13 A3001 RMK AO2 SLP156 T01670128
KDVN 190852Z AUTO 16004KT 10SM BKN080 18/13 A3001 RMK AO2 SLP156 T01780133 56007
KDVN 190752Z AUTO 13005KT 10SM CLR 18/14 A3001 RMK AO2 SLP156 T01780139
KDVN 190652Z AUTO 13006KT 10SM CLR 19/14 A3002 RMK AO2 SLP159 T01890144
KDVN 190552Z AUTO 13005KT 10SM CLR 19/16 A3003 RMK AO2 SLP163 T01940156 10261 20189 402720167 58003
KDVN 190452Z AUTO 13005KT 10SM CLR 19/16 A3004 RMK AO2 SLP166 T01940156
KDVN 190352Z AUTO 13005KT 10SM CLR 19/16 A3005 RMK AO2 SLP167 T01940161
KDVN 190252Z AUTO 12005KT 10SM CLR 21/16 A3005 RMK AO2 SLP166 T02060161 53005
KDVN 190152Z AUTO 12005KT 10SM CLR 22/17 A3003 RMK AO2 SLP161 T02170167
KDVN 190052Z AUTO 12006KT 10SM CLR 23/17 A3003 RMK AO2 SLP161 T02330167
KDVN 182352Z AUTO 11009KT 10SM FEW042 26/16 A3003 RMK AO2 SLP161 T02610161 10272 20256 56013
KDVN 182252Z AUTO 12010KT 10SM CLR 26/17 A3004 RMK AO2 SLP164 T02610167
KDVN 182152Z AUTO 11006KT 10SM BKN047 BKN055 BKN070 26/17 A3006 RMK AO2 SLP172 T02560167
KDVN 182052Z AUTO 12006KT 10SM BKN041 OVC049 26/17 A3007 RMK AO2 SLP174 T02560167 58013
KDVN 181952Z AUTO 16007KT 10SM SCT040 BKN055 BKN070 26/18 A3008 RMK AO2 SLP180 T02610178
KDVN 181852Z AUTO 10007KT 10SM FEW037 FEW045 BKN055 27/18 A3010 RMK AO2 SLP183 T02670178
KDVN 181752Z AUTO 12007KT 10SM CLR 27/17 A3011 RMK AO2 SLP188 T02670167 10267 20189 58008
KDVN 181652Z AUTO 14005KT 10SM FEW070 26/17 A3013 RMK AO2 SLP196 T02560167
KDVN 181552Z AUTO 15008KT 10SM CLR 24/16 A3013 RMK AO2 SLP196 T02440161